createdAt,value
2016-08-18T00:00:46.885Z,1029.71
2016-08-18T00:01:46.882Z,1029.68
2016-08-18T00:02:46.875Z,1029.65
2016-08-18T00:03:46.870Z,1029.65
2016-08-18T00:04:46.865Z,1029.62
2016-08-18T00:05:46.859Z,1029.65
2016-08-18T00:06:46.854Z,1029.6
2016-08-18T00:07:46.851Z,1029.6
2016-08-18T00:08:46.846Z,1029.61
2016-08-18T00:09:46.839Z,1029.61
2016-08-18T00:10:46.833Z,1029.59
2016-08-18T00:11:46.830Z,1029.6
2016-08-18T00:12:46.823Z,1029.61
2016-08-18T00:13:46.818Z,1029.55
2016-08-18T00:14:46.812Z,1029.56
2016-08-18T00:15:46.807Z,1029.54
2016-08-18T00:16:46.803Z,1029.53
2016-08-18T00:17:46.796Z,1029.51
2016-08-18T00:18:46.793Z,1029.49
2016-08-18T00:19:46.787Z,1029.47
2016-08-18T00:20:46.784Z,1029.49
2016-08-18T00:21:46.774Z,1029.41
2016-08-18T00:22:46.772Z,1029.45
2016-08-18T00:23:46.764Z,1029.43
2016-08-18T00:24:46.767Z,1029.38
2016-08-18T00:25:46.760Z,1029.41
2016-08-18T00:26:46.749Z,1029.39
2016-08-18T00:27:46.747Z,1029.4
2016-08-18T00:28:46.740Z,1029.41
2016-08-18T00:29:46.733Z,1029.42
2016-08-18T00:30:46.729Z,1029.45
2016-08-18T00:32:46.717Z,1029.4
2016-08-18T00:33:46.714Z,1029.45
2016-08-18T00:34:46.707Z,1029.58
2016-08-18T00:35:46.704Z,1029.62
2016-08-18T00:36:46.698Z,1029.6
2016-08-18T00:37:46.691Z,1029.56
2016-08-18T00:38:46.685Z,1029.56
2016-08-18T00:39:46.680Z,1029.56
2016-08-18T00:40:46.717Z,1029.62
2016-08-18T00:41:47.829Z,1029.68
2016-08-18T00:42:46.666Z,1029.72
2016-08-18T00:43:46.659Z,1029.69
2016-08-18T00:44:46.655Z,1029.59
2016-08-18T00:45:46.648Z,1029.59
2016-08-18T00:46:46.644Z,1029.63
2016-08-18T00:47:46.639Z,1029.62
2016-08-18T00:48:46.631Z,1029.64
2016-08-18T00:49:46.627Z,1029.66
2016-08-18T00:50:46.620Z,1029.68
2016-08-18T00:51:46.615Z,1029.65
2016-08-18T00:52:46.613Z,1029.65
2016-08-18T00:53:46.605Z,1029.62
2016-08-18T00:54:46.600Z,1029.61
2016-08-18T00:55:46.596Z,1029.57
2016-08-18T00:56:46.590Z,1029.58
2016-08-18T00:57:46.585Z,1029.57
2016-08-18T00:58:46.581Z,1029.56
2016-08-18T00:59:46.574Z,1029.52
2016-08-18T01:00:46.569Z,1029.54
2016-08-18T01:01:46.563Z,1029.52
2016-08-18T01:02:46.556Z,1029.5
2016-08-18T01:03:46.552Z,1029.5
2016-08-18T01:04:46.548Z,1029.48
2016-08-18T01:05:46.539Z,1029.47
2016-08-18T01:06:46.535Z,1029.47
2016-08-18T01:07:46.530Z,1029.48
2016-08-18T01:08:46.524Z,1029.49
2016-08-18T01:09:46.516Z,1029.51
2016-08-18T01:10:46.513Z,1029.46
2016-08-18T01:11:46.955Z,1029.52
2016-08-18T01:12:46.501Z,1029.54
2016-08-18T01:13:46.496Z,1029.5
2016-08-18T01:14:46.491Z,1029.51
2016-08-18T01:15:46.483Z,1029.52
2016-08-18T01:16:46.476Z,1029.51
2016-08-18T01:17:46.471Z,1029.5
2016-08-18T01:18:46.465Z,1029.47
2016-08-18T01:19:46.459Z,1029.5
2016-08-18T01:20:47.257Z,1029.54
2016-08-18T01:21:46.450Z,1029.54
2016-08-18T01:22:46.443Z,1029.51
2016-08-18T01:23:46.439Z,1029.49
2016-08-18T01:24:46.433Z,1029.48
2016-08-18T01:25:46.427Z,1029.51
2016-08-18T01:26:46.422Z,1029.48
2016-08-18T01:27:46.412Z,1029.44
2016-08-18T01:28:46.408Z,1029.44
2016-08-18T01:29:46.402Z,1029.45
2016-08-18T01:30:46.396Z,1029.45
2016-08-18T01:31:46.392Z,1029.42
2016-08-18T01:32:46.386Z,1029.39
2016-08-18T01:33:46.379Z,1029.4
2016-08-18T01:34:46.373Z,1029.4
2016-08-18T01:35:46.369Z,1029.42
2016-08-18T01:36:46.363Z,1029.42
2016-08-18T01:37:46.355Z,1029.42
2016-08-18T01:38:46.349Z,1029.42
2016-08-18T01:39:46.344Z,1029.42
2016-08-18T01:40:46.340Z,1029.42
2016-08-18T01:41:46.333Z,1029.4
2016-08-18T01:42:46.326Z,1029.46
2016-08-18T01:43:46.321Z,1029.36
2016-08-18T01:44:46.316Z,1029.39
2016-08-18T01:45:46.309Z,1029.35
2016-08-18T01:46:46.304Z,1029.35
2016-08-18T01:47:46.296Z,1029.3
2016-08-18T01:48:46.293Z,1029.28
2016-08-18T01:49:46.286Z,1029.29
2016-08-18T01:50:47.735Z,1029.26
2016-08-18T01:51:46.273Z,1029.26
2016-08-18T01:52:46.268Z,1029.23
2016-08-18T01:53:46.453Z,1029.26
2016-08-18T01:54:46.261Z,1029.18
2016-08-18T01:55:46.250Z,1029.18
2016-08-18T01:56:46.243Z,1029.17
2016-08-18T01:57:46.239Z,1029.17
2016-08-18T01:58:46.231Z,1029.17
2016-08-18T01:59:46.225Z,1029.16
2016-08-18T02:00:46.220Z,1029.18
2016-08-18T02:01:46.213Z,1029.13
2016-08-18T02:02:46.207Z,1029.17
2016-08-18T02:03:46.200Z,1029.17
2016-08-18T02:04:46.195Z,1029.16
2016-08-18T02:05:46.191Z,1029.13
2016-08-18T02:06:46.185Z,1029.11
2016-08-18T02:07:46.176Z,1029.08
2016-08-18T02:08:46.173Z,1029.03
2016-08-18T02:09:46.166Z,1029.03
2016-08-18T02:10:46.162Z,1029.04
2016-08-18T02:11:46.153Z,1029.03
2016-08-18T02:12:46.150Z,1029.01
2016-08-18T02:13:46.143Z,1029.01
2016-08-18T02:14:46.135Z,1029.02
2016-08-18T02:15:46.129Z,1029.01
2016-08-18T02:16:46.124Z,1029.02
2016-08-18T02:17:46.119Z,1028.99
2016-08-18T02:18:46.111Z,1029
2016-08-18T02:19:46.108Z,1029
2016-08-18T02:20:46.099Z,1028.99
2016-08-18T02:21:48.198Z,1029.04
2016-08-18T02:22:46.086Z,1028.99
2016-08-18T02:23:46.083Z,1028.98
2016-08-18T02:24:46.079Z,1029
2016-08-18T02:25:46.070Z,1029.02
2016-08-18T02:26:46.065Z,1029.04
2016-08-18T02:27:46.058Z,1029.03
2016-08-18T02:28:46.101Z,1029.02
2016-08-18T02:29:46.044Z,1028.98
2016-08-18T02:30:46.038Z,1028.95
2016-08-18T02:31:46.033Z,1028.98
2016-08-18T02:32:46.029Z,1028.96
2016-08-18T02:33:46.020Z,1028.97
2016-08-18T02:34:46.015Z,1028.94
2016-08-18T02:35:46.009Z,1028.96
2016-08-18T02:36:46.001Z,1028.99
2016-08-18T02:37:45.996Z,1028.99
2016-08-18T02:38:45.990Z,1028.98
2016-08-18T02:39:46.284Z,1028.95
2016-08-18T02:40:45.979Z,1028.92
2016-08-18T02:41:45.972Z,1028.9
2016-08-18T02:42:45.973Z,1028.9
2016-08-18T02:43:45.959Z,1028.91
2016-08-18T02:45:45.947Z,1028.92
2016-08-18T02:46:45.943Z,1028.9
2016-08-18T02:47:45.934Z,1028.87
2016-08-18T02:48:45.929Z,1028.9
2016-08-18T02:49:45.922Z,1028.88
2016-08-18T02:50:45.917Z,1028.86
2016-08-18T02:51:45.910Z,1028.87
2016-08-18T02:52:45.905Z,1028.83
2016-08-18T02:53:45.898Z,1028.85
2016-08-18T02:54:45.891Z,1028.86
2016-08-18T02:55:45.887Z,1028.85
2016-08-18T02:56:45.885Z,1028.85
2016-08-18T02:57:45.875Z,1028.85
2016-08-18T02:58:45.866Z,1028.79
2016-08-18T02:59:45.863Z,1028.79
2016-08-18T03:00:45.857Z,1028.78
2016-08-18T03:01:45.851Z,1028.79
2016-08-18T03:02:45.841Z,1028.77
2016-08-18T03:03:45.837Z,1028.79
2016-08-18T03:04:45.829Z,1028.73
2016-08-18T03:05:45.823Z,1028.75
2016-08-18T03:06:45.817Z,1028.79
2016-08-18T03:07:45.810Z,1028.75
2016-08-18T03:08:47.535Z,1028.74
2016-08-18T03:09:45.798Z,1028.72
2016-08-18T03:10:45.792Z,1028.73
2016-08-18T03:11:45.786Z,1028.75
2016-08-18T03:12:45.781Z,1028.73
2016-08-18T03:13:45.773Z,1028.75
2016-08-18T03:14:45.768Z,1028.73
2016-08-18T03:15:45.848Z,1028.68
2016-08-18T03:16:45.755Z,1028.68
2016-08-18T03:17:45.911Z,1028.61
2016-08-18T03:18:45.746Z,1028.55
2016-08-18T03:19:45.737Z,1028.54
2016-08-18T03:20:46.491Z,1028.5
2016-08-18T03:21:45.726Z,1028.51
2016-08-18T03:22:45.720Z,1028.46
2016-08-18T03:23:45.712Z,1028.48
2016-08-18T03:24:45.708Z,1028.47
2016-08-18T03:25:45.699Z,1028.46
2016-08-18T03:26:45.694Z,1028.44
2016-08-18T03:27:45.687Z,1028.45
2016-08-18T03:28:45.684Z,1028.48
2016-08-18T03:29:45.677Z,1028.45
2016-08-18T03:30:45.670Z,1028.43
2016-08-18T03:31:45.662Z,1028.44
2016-08-18T03:32:45.659Z,1028.45
2016-08-18T03:33:45.653Z,1028.43
2016-08-18T03:34:45.646Z,1028.44
2016-08-18T03:35:45.638Z,1028.44
2016-08-18T03:36:45.641Z,1028.45
2016-08-18T03:37:45.626Z,1028.44
2016-08-18T03:38:45.620Z,1028.43
2016-08-18T03:39:45.613Z,1028.44
2016-08-18T03:40:45.610Z,1028.44
2016-08-18T03:41:45.604Z,1028.47
2016-08-18T03:42:45.595Z,1028.44
2016-08-18T03:43:45.589Z,1028.42
2016-08-18T03:44:45.585Z,1028.41
2016-08-18T03:45:45.579Z,1028.43
2016-08-18T03:46:45.621Z,1028.45
2016-08-18T03:47:45.564Z,1028.45
2016-08-18T03:48:45.560Z,1028.44
2016-08-18T03:49:45.555Z,1028.44
2016-08-18T03:50:45.546Z,1028.41
2016-08-18T03:51:45.542Z,1028.4
2016-08-18T03:52:45.534Z,1028.41
2016-08-18T03:53:45.580Z,1028.43
2016-08-18T03:54:45.521Z,1028.38
2016-08-18T03:55:45.716Z,1028.39
2016-08-18T03:56:45.510Z,1028.38
2016-08-18T03:57:45.503Z,1028.38
2016-08-18T03:58:45.498Z,1028.37
2016-08-18T03:59:45.494Z,1028.37
2016-08-18T04:00:45.487Z,1028.34
2016-08-18T04:01:45.480Z,1028.4
2016-08-18T04:02:45.473Z,1028.37
2016-08-18T04:03:45.467Z,1028.36
2016-08-18T04:04:45.460Z,1028.44
2016-08-18T04:05:45.456Z,1028.4
2016-08-18T04:06:45.450Z,1028.39
2016-08-18T04:07:45.444Z,1028.39
2016-08-18T04:08:45.438Z,1028.39
2016-08-18T04:09:45.430Z,1028.37
2016-08-18T04:10:45.424Z,1028.39
2016-08-18T04:11:45.418Z,1028.39
2016-08-18T04:12:45.412Z,1028.39
2016-08-18T04:13:45.406Z,1028.35
2016-08-18T04:14:45.400Z,1028.36
2016-08-18T04:15:45.394Z,1028.34
2016-08-18T04:16:45.386Z,1028.31
2016-08-18T04:17:45.387Z,1028.3
2016-08-18T04:18:45.373Z,1028.27
2016-08-18T04:19:45.369Z,1028.25
2016-08-18T04:20:45.364Z,1028.2
2016-08-18T04:21:45.358Z,1028.11
2016-08-18T04:22:45.349Z,1028.06
2016-08-18T04:23:45.346Z,1027.98
2016-08-18T04:24:45.338Z,1027.92
2016-08-18T04:25:45.333Z,1027.86
2016-08-18T04:26:45.325Z,1027.79
2016-08-18T04:27:45.957Z,1027.66
2016-08-18T04:28:46.165Z,1027.49
2016-08-18T04:29:45.307Z,1027.29
2016-08-18T04:30:45.303Z,1027.12
2016-08-18T04:31:45.299Z,1026.97
2016-08-18T04:32:45.291Z,1026.79
2016-08-18T04:33:45.289Z,1026.67
2016-08-18T04:34:45.280Z,1026.66
2016-08-18T04:35:45.930Z,1026.62
2016-08-18T04:36:45.270Z,1026.59
2016-08-18T04:37:45.290Z,1026.59
2016-08-18T04:38:45.259Z,1026.57
2016-08-18T04:39:45.263Z,1026.56
2016-08-18T04:40:45.249Z,1026.6
2016-08-18T04:41:45.244Z,1026.59
2016-08-18T04:42:45.241Z,1026.61
2016-08-18T04:43:45.236Z,1026.58
2016-08-18T04:44:45.230Z,1026.58
2016-08-18T04:45:45.228Z,1026.53
2016-08-18T04:46:45.222Z,1026.49
2016-08-18T04:47:45.218Z,1026.47
2016-08-18T04:48:45.212Z,1026.43
2016-08-18T04:49:45.208Z,1026.38
2016-08-18T04:50:45.206Z,1026.35
2016-08-18T04:51:45.201Z,1026.3
2016-08-18T04:52:45.194Z,1026.25
2016-08-18T04:53:45.193Z,1026.24
2016-08-18T04:54:45.187Z,1026.24
2016-08-18T04:55:45.182Z,1026.23
2016-08-18T04:56:45.178Z,1026.26
2016-08-18T04:57:45.174Z,1026.25
2016-08-18T04:58:45.170Z,1026.3
2016-08-18T04:59:45.168Z,1026.3
2016-08-18T05:00:45.162Z,1026.3
2016-08-18T05:01:45.158Z,1026.29
2016-08-18T05:02:45.156Z,1026.34
2016-08-18T05:03:45.451Z,1026.3
2016-08-18T05:04:45.847Z,1026.28
2016-08-18T05:05:45.145Z,1026.22
2016-08-18T05:06:45.140Z,1026.22
2016-08-18T05:08:45.133Z,1026.16
2016-08-18T05:09:45.128Z,1026.19
2016-08-18T05:10:45.324Z,1026.14
2016-08-18T05:11:45.120Z,1026.14
2016-08-18T05:12:45.117Z,1026.15
2016-08-18T05:14:45.109Z,1026.06
2016-08-18T05:15:45.106Z,1025.96
2016-08-18T05:17:45.096Z,1025.92
2016-08-18T05:18:45.092Z,1025.91
2016-08-18T05:19:45.089Z,1025.89
2016-08-18T05:20:45.085Z,1025.84
2016-08-18T05:21:45.082Z,1025.81
2016-08-18T05:22:45.079Z,1025.76
2016-08-18T05:23:45.075Z,1025.71
2016-08-18T05:24:45.072Z,1025.67
2016-08-18T05:25:45.066Z,1025.62
2016-08-18T05:26:45.065Z,1025.58
2016-08-18T05:27:45.059Z,1025.58
2016-08-18T05:28:45.055Z,1025.49
2016-08-18T05:29:45.053Z,1025.47
2016-08-18T05:30:45.049Z,1025.45
2016-08-18T05:31:45.045Z,1025.42
2016-08-18T05:32:45.042Z,1025.39
2016-08-18T05:33:45.039Z,1025.35
2016-08-18T05:34:45.035Z,1025.34
2016-08-18T05:35:45.032Z,1025.36
2016-08-18T05:36:45.031Z,1025.28
2016-08-18T05:37:45.026Z,1025.27
2016-08-18T05:38:45.023Z,1025.25
2016-08-18T05:39:45.019Z,1025.24
2016-08-18T05:40:45.016Z,1025.19
2016-08-18T05:41:45.015Z,1025.17
2016-08-18T05:42:45.013Z,1025.13
2016-08-18T05:43:45.008Z,1025.14
2016-08-18T05:44:45.007Z,1025.06
2016-08-18T05:45:46.571Z,1025.05
2016-08-18T05:46:44.998Z,1025.02
2016-08-18T05:47:44.996Z,1024.98
2016-08-18T05:48:44.993Z,1024.92
2016-08-18T05:49:44.993Z,1024.91
2016-08-18T05:50:44.989Z,1024.9
2016-08-18T05:51:44.986Z,1024.85
2016-08-18T05:52:44.984Z,1024.86
2016-08-18T05:54:45.737Z,1024.79
2016-08-18T05:55:44.977Z,1024.78
2016-08-18T05:56:44.974Z,1024.8
2016-08-18T05:57:44.969Z,1024.75
2016-08-18T05:58:44.966Z,1024.75
2016-08-18T05:59:44.965Z,1024.76
2016-08-18T06:00:44.964Z,1024.73
2016-08-18T06:01:44.965Z,1024.74
2016-08-18T06:02:44.960Z,1024.66
2016-08-18T06:03:44.957Z,1024.7
2016-08-18T06:04:44.954Z,1024.7
2016-08-18T06:05:44.950Z,1024.62
2016-08-18T06:06:44.950Z,1024.64
2016-08-18T06:07:44.949Z,1024.58
2016-08-18T06:08:44.944Z,1024.5
2016-08-18T06:09:44.942Z,1024.45
2016-08-18T06:10:44.940Z,1024.39
2016-08-18T06:11:44.940Z,1024.3
2016-08-18T06:12:44.935Z,1024.28
2016-08-18T06:13:44.936Z,1024.21
2016-08-18T06:14:44.934Z,1024.19
2016-08-18T06:15:44.930Z,1024.15
2016-08-18T06:16:44.931Z,1024.11
2016-08-18T06:17:44.929Z,1024.06
2016-08-18T06:18:44.931Z,1024.08
2016-08-18T06:19:44.922Z,1023.97
2016-08-18T06:20:44.921Z,1023.91
2016-08-18T06:21:45.571Z,1023.87
2016-08-18T06:22:44.920Z,1023.86
2016-08-18T06:23:45.867Z,1023.82
2016-08-18T06:25:44.917Z,1023.67
2016-08-18T06:26:44.912Z,1023.63
2016-08-18T06:27:44.918Z,1023.63
2016-08-18T06:28:44.910Z,1023.59
2016-08-18T06:29:44.910Z,1023.58
2016-08-18T06:30:44.907Z,1023.51
2016-08-18T06:31:44.910Z,1023.48
2016-08-18T06:34:44.906Z,1023.36
2016-08-18T06:35:44.904Z,1023.38
2016-08-18T06:36:44.906Z,1023.36
2016-08-18T06:37:44.902Z,1023.34
2016-08-18T06:38:44.915Z,1023.29
2016-08-18T06:39:44.903Z,1023.29
2016-08-18T06:40:44.901Z,1023.28
2016-08-18T06:41:44.899Z,1023.23
2016-08-18T06:42:44.900Z,1023.14
2016-08-18T06:43:44.901Z,1023.12
2016-08-18T06:44:44.901Z,1023.05
2016-08-18T06:45:44.901Z,1023.08
2016-08-18T06:46:44.901Z,1023.03
2016-08-18T06:47:44.899Z,1023.03
2016-08-18T06:48:44.898Z,1023.04
2016-08-18T06:49:44.901Z,1023
2016-08-18T06:50:44.898Z,1023
2016-08-18T06:51:44.900Z,1023.01
2016-08-18T06:52:44.900Z,1022.99
2016-08-18T06:53:44.899Z,1022.98
2016-08-18T06:54:44.900Z,1023.01
2016-08-18T06:55:44.899Z,1023.03
2016-08-18T06:56:44.905Z,1023.02
2016-08-18T06:57:44.899Z,1023.04
2016-08-18T06:58:44.900Z,1023.02
2016-08-18T06:59:44.905Z,1023.02
2016-08-18T07:00:44.903Z,1022.98
2016-08-18T07:01:44.900Z,1022.99
2016-08-18T07:02:44.903Z,1022.92
2016-08-18T07:03:44.902Z,1022.95
2016-08-18T07:04:44.902Z,1022.97
2016-08-18T07:05:44.906Z,1022.92
2016-08-18T07:06:44.906Z,1022.92
2016-08-18T07:07:44.905Z,1022.96
2016-08-18T07:08:45.001Z,1022.94
2016-08-18T07:09:44.906Z,1022.92
2016-08-18T07:10:44.907Z,1022.89
2016-08-18T07:11:44.909Z,1022.9
2016-08-18T07:12:44.908Z,1022.88
2016-08-18T07:13:44.911Z,1022.89
2016-08-18T07:14:44.910Z,1022.83
2016-08-18T07:15:44.913Z,1022.81
2016-08-18T07:16:44.912Z,1022.78
2016-08-18T07:17:44.914Z,1022.76
2016-08-18T07:18:44.915Z,1022.75
2016-08-18T07:19:44.916Z,1022.71
2016-08-18T07:20:44.918Z,1022.69
2016-08-18T07:21:44.919Z,1022.65
2016-08-18T07:22:45.020Z,1022.58
2016-08-18T07:23:44.920Z,1022.52
2016-08-18T07:24:44.923Z,1022.49
2016-08-18T07:25:44.923Z,1022.39
2016-08-18T07:26:44.924Z,1022.34
2016-08-18T07:27:44.925Z,1022.31
2016-08-18T07:28:44.925Z,1022.22
2016-08-18T07:29:44.927Z,1022.22
2016-08-18T07:30:44.929Z,1022.18
2016-08-18T07:31:44.931Z,1022.19
2016-08-18T07:32:44.939Z,1022.19
2016-08-18T07:33:44.933Z,1022.17
2016-08-18T07:34:44.937Z,1022.13
2016-08-18T07:35:44.937Z,1022.1
2016-08-18T07:36:44.940Z,1022.1
2016-08-18T07:37:44.943Z,1022.04
2016-08-18T07:38:44.945Z,1022.03
2016-08-18T07:40:57.336Z,1021.98
2016-08-18T07:41:44.949Z,1021.99
2016-08-18T07:42:44.952Z,1021.94
2016-08-18T07:43:45.105Z,1021.93
2016-08-18T07:44:44.955Z,1021.91
2016-08-18T07:45:44.959Z,1021.94
2016-08-18T07:46:44.963Z,1021.96
2016-08-18T07:47:44.962Z,1022
2016-08-18T07:49:44.967Z,1022.04
2016-08-18T07:50:44.968Z,1022.03
2016-08-18T07:51:44.973Z,1022.08
2016-08-18T07:52:45.224Z,1022.13
2016-08-18T07:53:45.076Z,1022.15
2016-08-18T07:54:44.981Z,1022.16
2016-08-18T07:55:44.983Z,1022.16
2016-08-18T07:56:44.990Z,1022.2
2016-08-18T07:57:44.986Z,1022.19
2016-08-18T07:58:44.988Z,1022.23
2016-08-18T07:59:44.993Z,1022.2
2016-08-18T08:00:44.993Z,1022.18
2016-08-18T08:01:44.996Z,1022.17
2016-08-18T08:02:44.999Z,1022.15
2016-08-18T08:03:45.001Z,1022.12
2016-08-18T08:04:45.004Z,1022.04
2016-08-18T08:05:45.006Z,1022.02
2016-08-18T08:06:45.009Z,1022.05
2016-08-18T08:07:45.013Z,1022.02
2016-08-18T08:08:45.015Z,1022.01
2016-08-18T08:09:45.021Z,1022
2016-08-18T08:10:45.019Z,1021.97
2016-08-18T08:11:45.024Z,1021.91
2016-08-18T08:12:45.027Z,1021.89
2016-08-18T08:13:45.028Z,1021.85
2016-08-18T08:14:45.034Z,1021.8
2016-08-18T08:15:45.036Z,1021.74
2016-08-18T08:16:45.039Z,1021.69
2016-08-18T08:17:45.041Z,1021.62
2016-08-18T08:18:45.048Z,1021.53
2016-08-18T08:19:45.046Z,1021.51
2016-08-18T08:20:45.048Z,1021.46
2016-08-18T08:21:45.052Z,1021.41
2016-08-18T08:22:45.511Z,1021.36
2016-08-18T08:23:45.060Z,1021.29
2016-08-18T08:24:45.064Z,1021.24
2016-08-18T08:25:45.161Z,1021.2
2016-08-18T08:26:45.070Z,1021.13
2016-08-18T08:27:45.072Z,1021.05
2016-08-18T08:28:45.078Z,1020.99
2016-08-18T08:29:45.082Z,1020.94
2016-08-18T08:30:45.085Z,1020.86
2016-08-18T08:31:45.201Z,1020.78
2016-08-18T08:32:45.094Z,1020.7
2016-08-18T08:33:45.101Z,1020.7
2016-08-18T08:34:45.646Z,1020.61
2016-08-18T08:35:45.108Z,1020.53
2016-08-18T08:36:45.114Z,1020.42
2016-08-18T08:37:45.119Z,1020.34
2016-08-18T08:38:45.123Z,1020.24
2016-08-18T08:39:45.128Z,1020.16
2016-08-18T08:40:45.133Z,1020.14
2016-08-18T08:41:45.136Z,1020.11
2016-08-18T08:42:45.143Z,1020.12
2016-08-18T08:43:45.146Z,1020.11
2016-08-18T08:44:45.152Z,1020.11
2016-08-18T08:45:45.157Z,1020.14
2016-08-18T08:46:45.164Z,1020.16
2016-08-18T08:47:45.173Z,1020.11
2016-08-18T08:48:45.178Z,1020.13
2016-08-18T08:49:45.181Z,1020.15
2016-08-18T08:50:45.189Z,1020.13
2016-08-18T08:51:45.196Z,1020.14
2016-08-18T08:52:45.202Z,1020.14
2016-08-18T08:53:45.207Z,1020.15
2016-08-18T08:54:45.214Z,1020.19
2016-08-18T08:55:45.221Z,1020.1
2016-08-18T08:56:45.224Z,1020.03
2016-08-18T08:58:45.237Z,1019.87
2016-08-18T08:59:45.245Z,1019.77
2016-08-18T09:00:45.402Z,1019.64
2016-08-18T09:01:45.258Z,1019.53
2016-08-18T09:02:45.264Z,1019.43
2016-08-18T09:03:45.271Z,1019.37
2016-08-18T09:04:45.281Z,1019.33
2016-08-18T09:05:45.284Z,1019.27
2016-08-18T09:06:45.292Z,1019.23
2016-08-18T09:07:45.299Z,1019.23
2016-08-18T09:08:45.308Z,1019.26
2016-08-18T09:09:45.964Z,1019.36
2016-08-18T09:10:45.324Z,1019.41
2016-08-18T09:11:45.328Z,1019.42
2016-08-18T09:12:45.338Z,1019.44
2016-08-18T09:13:45.344Z,1019.52
2016-08-18T09:14:45.351Z,1019.51
2016-08-18T09:15:45.361Z,1019.53
2016-08-18T09:16:45.369Z,1019.51
2016-08-18T09:17:45.378Z,1019.52
2016-08-18T09:18:45.384Z,1019.45
2016-08-18T09:19:45.390Z,1019.43
2016-08-18T09:20:45.400Z,1019.39
2016-08-18T09:21:45.406Z,1019.38
2016-08-18T09:22:45.413Z,1019.4
2016-08-18T09:23:45.423Z,1019.43
2016-08-18T09:24:45.431Z,1019.38
2016-08-18T09:25:45.436Z,1019.36
2016-08-18T09:26:45.446Z,1019.32
2016-08-18T09:27:45.453Z,1019.28
2016-08-18T09:28:45.464Z,1019.27
2016-08-18T09:29:45.468Z,1019.32
2016-08-18T09:30:45.483Z,1019.34
2016-08-18T09:31:45.504Z,1019.44
2016-08-18T09:32:45.496Z,1019.46
2016-08-18T09:33:45.504Z,1019.47
2016-08-18T09:34:45.525Z,1019.58
2016-08-18T09:35:45.907Z,1019.67
2016-08-18T09:36:45.526Z,1019.76
2016-08-18T09:37:45.534Z,1019.8
2016-08-18T09:38:45.545Z,1019.83
2016-08-18T09:39:45.552Z,1019.85
2016-08-18T09:40:45.560Z,1019.88
2016-08-18T09:41:46.123Z,1019.81
2016-08-18T09:42:46.408Z,1019.83
2016-08-18T09:43:45.582Z,1019.8
2016-08-18T09:44:45.593Z,1019.87
2016-08-18T09:45:45.601Z,1019.94
2016-08-18T09:46:45.607Z,1019.95
2016-08-18T09:47:45.616Z,1019.98
2016-08-18T09:48:45.623Z,1019.97
2016-08-18T09:49:45.631Z,1019.93
2016-08-18T09:50:46.320Z,1019.9
2016-08-18T09:51:45.661Z,1019.91
2016-08-18T09:52:45.656Z,1019.9
2016-08-18T09:53:45.673Z,1019.84
2016-08-18T09:54:45.670Z,1019.82
2016-08-18T09:55:45.678Z,1019.76
2016-08-18T09:56:45.688Z,1019.69
2016-08-18T09:57:45.693Z,1019.7
2016-08-18T09:58:45.700Z,1019.71
2016-08-18T09:59:45.707Z,1019.76
2016-08-18T10:00:45.719Z,1019.88
2016-08-18T10:01:45.726Z,1019.98
2016-08-18T10:02:45.733Z,1020.08
2016-08-18T10:03:45.740Z,1020.14
2016-08-18T10:04:45.753Z,1020.13
2016-08-18T10:05:45.756Z,1020.06
2016-08-18T10:06:45.764Z,1019.95
2016-08-18T10:07:45.773Z,1019.91
2016-08-18T10:08:45.782Z,1019.96
2016-08-18T10:09:45.787Z,1019.95
2016-08-18T10:10:45.795Z,1020.13
2016-08-18T10:11:45.801Z,1020.19
2016-08-18T10:12:45.810Z,1020.24
2016-08-18T10:13:45.816Z,1020.35
2016-08-18T10:14:45.827Z,1020.38
2016-08-18T10:15:45.834Z,1020.4
2016-08-18T10:17:46.399Z,1020.52
2016-08-18T10:18:45.855Z,1020.62
2016-08-18T10:19:46.014Z,1020.62
2016-08-18T10:20:45.868Z,1020.67
2016-08-18T10:21:45.877Z,1020.62
2016-08-18T10:22:45.985Z,1020.7
2016-08-18T10:23:45.891Z,1020.73
2016-08-18T10:24:45.900Z,1020.79
2016-08-18T10:25:46.506Z,1020.77
2016-08-18T10:26:46.462Z,1020.82
2016-08-18T10:27:45.922Z,1020.81
2016-08-18T10:28:46.579Z,1020.9
2016-08-18T10:29:46.535Z,1020.96
2016-08-18T10:30:45.944Z,1020.96
2016-08-18T10:31:45.950Z,1021.02
2016-08-18T10:32:45.956Z,1021.05
2016-08-18T10:33:45.960Z,1021.04
2016-08-18T10:34:45.968Z,1021.07
2016-08-18T10:35:45.973Z,1021.01
2016-08-18T10:36:45.981Z,1021.07
2016-08-18T10:37:45.987Z,1021.05
2016-08-18T10:38:45.993Z,1021.07
2016-08-18T10:39:46.008Z,1021.17
2016-08-18T10:40:46.007Z,1021.19
2016-08-18T10:41:46.014Z,1021.25
2016-08-18T10:42:46.018Z,1021.26
2016-08-18T10:43:46.026Z,1021.32
2016-08-18T10:44:46.031Z,1021.35
2016-08-18T10:45:46.038Z,1021.36
2016-08-18T10:46:46.043Z,1021.27
2016-08-18T10:47:46.050Z,1021.32
2016-08-18T10:48:46.063Z,1021.3
2016-08-18T10:49:46.062Z,1021.32
2016-08-18T10:50:46.086Z,1021.21
2016-08-18T10:51:46.076Z,1021.14
2016-08-18T10:52:46.083Z,1021.17
2016-08-18T10:53:46.087Z,1021.16
2016-08-18T10:54:46.094Z,1021.06
2016-08-18T10:55:46.101Z,1020.99
2016-08-18T10:56:46.393Z,1020.95
2016-08-18T10:57:47.248Z,1020.92
2016-08-18T10:58:46.121Z,1020.8
2016-08-18T10:59:46.126Z,1020.79
2016-08-18T11:00:46.134Z,1020.7
2016-08-18T11:01:46.698Z,1020.58
2016-08-18T11:02:46.145Z,1020.54
2016-08-18T11:03:46.149Z,1020.52
2016-08-18T11:04:46.155Z,1020.6
2016-08-18T11:05:46.161Z,1020.5
2016-08-18T11:06:46.728Z,1020.59
2016-08-18T11:07:46.176Z,1020.54
2016-08-18T11:08:46.183Z,1020.49
2016-08-18T11:09:46.187Z,1020.48
2016-08-18T11:10:46.196Z,1020.46
2016-08-18T11:11:46.687Z,1020.45
2016-08-18T11:12:46.212Z,1020.42
2016-08-18T11:13:46.214Z,1020.52
2016-08-18T11:14:46.219Z,1020.65
2016-08-18T11:15:46.227Z,1020.67
2016-08-18T11:16:46.233Z,1020.8
2016-08-18T11:17:46.242Z,1020.82
2016-08-18T11:18:46.247Z,1020.82
2016-08-18T11:19:46.254Z,1020.87
2016-08-18T11:20:46.260Z,1020.93
2016-08-18T11:21:46.266Z,1020.94
2016-08-18T11:22:46.372Z,1021.1
2016-08-18T11:23:46.278Z,1021.1
2016-08-18T11:24:46.286Z,1021.13
2016-08-18T11:25:46.294Z,1021.14
2016-08-18T11:26:46.300Z,1021.14
2016-08-18T11:27:46.308Z,1021.12
2016-08-18T11:28:46.314Z,1021.12
2016-08-18T11:29:46.320Z,1021.14
2016-08-18T11:30:46.325Z,1021.27
2016-08-18T11:31:46.332Z,1021.29
2016-08-18T11:32:46.343Z,1021.33
2016-08-18T11:33:46.341Z,1021.44
2016-08-18T11:34:46.350Z,1021.58
2016-08-18T11:35:46.354Z,1021.68
2016-08-18T11:36:46.361Z,1021.72
2016-08-18T11:37:46.368Z,1021.85
2016-08-18T11:38:46.373Z,1021.96
2016-08-18T11:39:46.508Z,1022.06
2016-08-18T11:40:46.384Z,1022.18
2016-08-18T11:41:46.390Z,1022.24
2016-08-18T11:42:46.397Z,1022.26
2016-08-18T11:43:46.802Z,1022.29
2016-08-18T11:44:46.408Z,1022.26
2016-08-18T11:45:46.413Z,1022.26
2016-08-18T11:46:46.418Z,1022.41
2016-08-18T11:47:46.428Z,1022.37
2016-08-18T11:48:46.429Z,1022.43
2016-08-18T11:49:46.453Z,1022.42
2016-08-18T11:50:46.818Z,1022.48
2016-08-18T11:51:46.444Z,1022.52
2016-08-18T11:52:46.448Z,1022.47
2016-08-18T11:53:46.453Z,1022.48
2016-08-18T11:54:46.458Z,1022.62
2016-08-18T11:55:46.461Z,1022.64
2016-08-18T11:56:46.466Z,1022.64
2016-08-18T12:11:59.879Z,1023.8
2016-08-18T12:12:59.883Z,1023.88
2016-08-18T12:13:59.887Z,1023.82
2016-08-18T12:15:00.570Z,1023.78
2016-08-18T12:16:01.054Z,1023.76
2016-08-18T12:17:00.500Z,1023.76
2016-08-18T12:18:00.501Z,1023.63
2016-08-18T12:19:00.513Z,1023.54
2016-08-18T12:20:00.509Z,1023.45
2016-08-18T12:21:00.513Z,1023.37
2016-08-18T12:22:00.515Z,1023.33
2016-08-18T12:23:00.669Z,1023.25
2016-08-18T12:24:00.520Z,1023.14
2016-08-18T12:25:00.711Z,1023.03
2016-08-18T12:26:00.528Z,1022.94
2016-08-18T12:27:00.550Z,1022.88
2016-08-18T12:28:00.532Z,1022.67
2016-08-18T12:29:00.536Z,1022.63
2016-08-18T12:30:00.538Z,1022.64
2016-08-18T12:31:00.541Z,1022.61
2016-08-18T12:32:00.548Z,1022.57
2016-08-18T12:33:00.546Z,1022.54
2016-08-18T12:34:00.550Z,1022.43
2016-08-18T12:35:00.552Z,1022.39
2016-08-18T12:36:00.551Z,1022.33